createdAt,value
2023-05-09T00:00:20.085Z,20.30
2023-05-09T00:02:47.494Z,20.50
2023-05-09T00:05:14.996Z,17.33
2023-05-09T00:07:42.900Z,17.80
2023-05-09T00:10:11.860Z,18.63
2023-05-09T00:12:39.146Z,18.17
2023-05-09T00:15:08.251Z,18.47
2023-05-09T00:17:37.016Z,17.10
2023-05-09T00:20:04.748Z,16.63
2023-05-09T00:22:32.018Z,13.97
2023-05-09T00:24:59.237Z,15.60
2023-05-09T00:27:27.851Z,14.77
2023-05-09T00:29:55.146Z,14.33
2023-05-09T00:32:22.477Z,14.17
2023-05-09T00:34:51.143Z,13.10
2023-05-09T00:37:18.494Z,13.00
2023-05-09T00:39:46.168Z,10.67
2023-05-09T00:42:13.608Z,10.80
2023-05-09T00:44:43.007Z,12.20
2023-05-09T00:47:10.256Z,12.60
2023-05-09T00:49:37.854Z,9.63
2023-05-09T00:52:05.665Z,10.90
2023-05-09T00:54:32.980Z,10.27
2023-05-09T00:57:00.482Z,10.27
2023-05-09T00:59:27.940Z,9.57
2023-05-09T01:01:56.570Z,11.43
2023-05-09T01:04:23.860Z,10.13
2023-05-09T01:06:56.075Z,10.43
2023-05-09T01:09:25.858Z,11.13
2023-05-09T01:11:57.576Z,11.27
2023-05-09T01:14:27.723Z,10.97
2023-05-09T01:16:57.138Z,11.47
2023-05-09T01:19:46.132Z,10.77
2023-05-09T01:22:14.794Z,10.30
2023-05-09T01:24:50.480Z,11.40
2023-05-09T01:27:23.401Z,11.60
2023-05-09T01:29:57.172Z,11.03
2023-05-09T01:32:25.292Z,11.17
2023-05-09T01:34:53.343Z,10.33
2023-05-09T01:37:23.360Z,13.13
2023-05-09T01:39:54.148Z,10.73
2023-05-09T01:42:21.971Z,10.60
2023-05-09T01:44:50.000Z,8.33
2023-05-09T01:47:18.944Z,9.10
2023-05-09T01:49:47.308Z,10.33
2023-05-09T01:52:16.839Z,9.80
2023-05-09T01:54:45.226Z,10.93
2023-05-09T01:57:13.552Z,7.40
2023-05-09T01:59:42.359Z,8.37
2023-05-09T02:02:10.177Z,9.77
2023-05-09T02:04:39.532Z,8.97
2023-05-09T02:07:07.387Z,9.40
2023-05-09T02:09:34.663Z,7.87
2023-05-09T02:12:01.942Z,8.10
2023-05-09T02:14:30.264Z,8.53
2023-05-09T02:16:57.654Z,8.80
2023-05-09T02:19:25.091Z,9.40
2023-05-09T02:21:53.669Z,9.13
2023-05-09T02:24:20.955Z,9.53
2023-05-09T02:26:48.241Z,10.33
2023-05-09T02:29:17.492Z,9.97
2023-05-09T02:31:46.153Z,8.97
2023-05-09T02:34:13.956Z,9.80
2023-05-09T02:36:41.432Z,10.37
2023-05-09T02:39:10.179Z,10.33
2023-05-09T02:41:37.398Z,10.00
2023-05-09T02:44:04.754Z,8.97
2023-05-09T02:46:32.507Z,10.03
2023-05-09T02:49:00.168Z,9.20
2023-05-09T02:51:28.743Z,8.90
2023-05-09T02:53:56.090Z,9.57
2023-05-09T02:56:24.806Z,8.97
2023-05-09T02:58:52.334Z,9.03
2023-05-09T03:01:19.645Z,9.57
2023-05-09T03:03:47.122Z,10.50
2023-05-09T03:06:18.206Z,9.67
2023-05-09T03:08:45.540Z,7.90
2023-05-09T03:11:13.380Z,9.17
2023-05-09T03:13:42.402Z,8.90
2023-05-09T03:16:09.779Z,9.93
2023-05-09T03:18:37.141Z,8.73
2023-05-09T03:21:05.046Z,10.33
2023-05-09T03:23:33.094Z,9.60
2023-05-09T03:26:00.371Z,8.57
2023-05-09T03:28:28.620Z,9.07
2023-05-09T03:31:01.020Z,9.67
2023-05-09T03:33:29.704Z,9.50
2023-05-09T03:35:58.129Z,9.07
2023-05-09T03:38:25.441Z,8.27
2023-05-09T03:40:54.014Z,9.70
2023-05-09T03:43:22.287Z,9.10
2023-05-09T03:45:49.588Z,10.13
2023-05-09T03:48:18.379Z,10.50
2023-05-09T03:50:50.474Z,8.43
2023-05-09T03:53:17.726Z,10.80
2023-05-09T03:55:47.767Z,8.67
2023-05-09T03:58:16.822Z,9.60
2023-05-09T04:00:45.238Z,9.97
2023-05-09T04:03:20.645Z,11.57
2023-05-09T04:05:49.939Z,10.37
2023-05-09T04:08:38.776Z,10.47
2023-05-09T04:11:06.207Z,10.37
2023-05-09T04:13:34.679Z,10.13
2023-05-09T04:16:06.578Z,10.23
2023-05-09T04:18:36.149Z,11.00
2023-05-09T04:21:03.433Z,10.47
2023-05-09T04:23:31.009Z,10.57
2023-05-09T04:25:59.637Z,9.20
2023-05-09T04:28:26.964Z,11.00
2023-05-09T04:30:54.912Z,11.03
2023-05-09T04:33:22.439Z,11.20
2023-05-09T04:35:51.833Z,12.37
2023-05-09T04:38:19.553Z,11.00
2023-05-09T04:40:46.882Z,8.40
2023-05-09T04:43:14.238Z,9.50
2023-05-09T04:45:41.456Z,12.43
2023-05-09T04:48:08.776Z,10.33
2023-05-09T04:50:36.085Z,11.90
2023-05-09T04:53:05.387Z,10.83
2023-05-09T04:55:32.660Z,12.43
2023-05-09T04:58:00.754Z,9.70
2023-05-09T05:00:28.036Z,12.50
2023-05-09T05:02:55.497Z,10.83
2023-05-09T05:05:25.858Z,11.20
2023-05-09T05:07:54.457Z,11.70
2023-05-09T05:10:26.973Z,11.20
2023-05-09T05:13:02.534Z,11.30
2023-05-09T05:15:30.170Z,11.70
2023-05-09T05:17:58.065Z,10.67
2023-05-09T05:20:30.073Z,11.17
2023-05-09T05:22:57.471Z,10.37
2023-05-09T05:25:24.715Z,10.60
2023-05-09T05:27:56.943Z,11.47
2023-05-09T05:30:24.319Z,11.77
2023-05-09T05:32:51.846Z,11.13
2023-05-09T05:35:21.059Z,10.83
2023-05-09T05:37:49.301Z,11.50
2023-05-09T05:40:17.411Z,12.13
2023-05-09T05:42:47.774Z,11.03
2023-05-09T05:45:16.718Z,9.17
2023-05-09T05:47:48.707Z,10.67
2023-05-09T05:50:16.565Z,10.33
2023-05-09T05:52:43.923Z,10.73
2023-05-09T05:55:14.512Z,10.20
2023-05-09T05:57:42.398Z,9.07
2023-05-09T06:00:14.149Z,10.43
2023-05-09T06:02:45.927Z,10.00
2023-05-09T06:05:20.529Z,9.83
2023-05-09T06:07:48.031Z,8.53
2023-05-09T06:10:15.267Z,9.87
2023-05-09T06:12:44.203Z,9.47
2023-05-09T06:15:12.061Z,7.57
2023-05-09T06:17:42.573Z,7.77
2023-05-09T06:20:11.595Z,8.20
2023-05-09T06:22:38.953Z,10.17
2023-05-09T06:25:08.687Z,9.53
2023-05-09T06:27:37.564Z,9.50
2023-05-09T06:30:14.053Z,8.10
2023-05-09T06:32:51.947Z,7.40
2023-05-09T06:35:20.819Z,8.43
2023-05-09T06:37:49.030Z,7.50
2023-05-09T06:40:16.566Z,8.73
2023-05-09T06:42:43.914Z,6.80
2023-05-09T06:45:11.919Z,5.53
2023-05-09T06:47:39.348Z,6.57
2023-05-09T06:50:07.310Z,6.83
2023-05-09T06:52:35.983Z,7.17
2023-05-09T06:55:03.334Z,6.20
2023-05-09T06:57:30.736Z,5.83
2023-05-09T06:59:58.059Z,6.23
2023-05-09T07:02:25.316Z,5.17
2023-05-09T07:04:52.608Z,4.20
2023-05-09T07:07:19.946Z,5.20
2023-05-09T07:09:50.812Z,4.67
2023-05-09T07:12:20.489Z,4.37
2023-05-09T07:14:47.680Z,5.13
2023-05-09T07:17:22.685Z,4.83
2023-05-09T07:19:51.112Z,4.60
2023-05-09T07:22:18.381Z,4.80
2023-05-09T07:24:45.703Z,5.77
2023-05-09T07:27:14.296Z,4.43
2023-05-09T07:29:41.540Z,4.50
2023-05-09T07:32:09.048Z,4.20
2023-05-09T07:34:36.708Z,3.80
2023-05-09T07:37:04.025Z,4.73
2023-05-09T07:39:31.345Z,4.50
2023-05-09T07:41:58.579Z,4.33
2023-05-09T07:44:27.160Z,4.07
2023-05-09T07:46:54.463Z,4.03
2023-05-09T07:49:21.712Z,4.77
2023-05-09T07:51:48.976Z,4.60
2023-05-09T07:54:16.349Z,5.30
2023-05-09T07:56:43.591Z,5.47
2023-05-09T07:59:10.897Z,6.27
2023-05-09T08:01:39.514Z,5.27
2023-05-09T08:04:06.960Z,6.53
2023-05-09T08:06:34.268Z,6.57
2023-05-09T08:09:01.480Z,5.63
2023-05-09T08:11:28.894Z,6.03
2023-05-09T08:13:56.093Z,5.17
2023-05-09T08:16:23.471Z,6.23
2023-05-09T08:18:52.253Z,7.23
2023-05-09T08:21:21.558Z,7.17
2023-05-09T08:23:49.587Z,6.07
2023-05-09T08:26:16.821Z,6.90
2023-05-09T08:28:44.149Z,7.07
2023-05-09T08:31:11.486Z,7.03
2023-05-09T08:33:41.225Z,6.20
2023-05-09T08:36:10.704Z,7.57
2023-05-09T08:38:38.098Z,7.47
2023-05-09T08:41:05.402Z,5.83
2023-05-09T08:43:33.997Z,6.83
2023-05-09T08:46:04.096Z,7.17
2023-05-09T08:48:34.021Z,8.87
2023-05-09T08:51:02.670Z,6.03
2023-05-09T08:53:31.374Z,8.43
2023-05-09T08:55:59.212Z,6.30
2023-05-09T08:58:26.664Z,7.43
2023-05-09T09:00:54.229Z,8.80
2023-05-09T09:03:21.617Z,8.23
2023-05-09T09:05:49.553Z,7.77
2023-05-09T09:08:16.909Z,7.43
2023-05-09T09:10:45.858Z,6.47
2023-05-09T09:13:13.680Z,7.30
2023-05-09T09:15:41.914Z,7.80
2023-05-09T09:18:10.255Z,7.90
2023-05-09T09:20:41.194Z,7.60
2023-05-09T09:23:09.408Z,6.70
2023-05-09T09:25:36.725Z,7.07
2023-05-09T09:28:05.417Z,6.17
2023-05-09T09:30:32.696Z,7.20
2023-05-09T09:33:00.222Z,6.33
2023-05-09T09:35:27.538Z,7.50
2023-05-09T09:37:59.728Z,5.23
2023-05-09T09:40:27.440Z,6.73
2023-05-09T09:42:54.673Z,7.17
2023-05-09T09:45:23.421Z,7.20
2023-05-09T09:47:50.750Z,5.77
2023-05-09T09:50:18.824Z,6.73
2023-05-09T09:52:50.140Z,6.30
2023-05-09T09:55:17.711Z,5.70
2023-05-09T09:57:45.000Z,6.47
2023-05-09T10:00:13.374Z,6.57
2023-05-09T10:02:52.789Z,5.67
2023-05-09T10:05:23.671Z,5.30
2023-05-09T10:07:51.549Z,6.60
2023-05-09T10:10:18.919Z,6.60
2023-05-09T10:12:46.316Z,5.80
2023-05-09T10:15:15.281Z,6.07
2023-05-09T10:17:43.234Z,5.80
2023-05-09T10:20:13.482Z,5.00
2023-05-09T10:22:41.151Z,4.93
2023-05-09T10:25:10.799Z,4.60
2023-05-09T10:27:38.878Z,5.63
2023-05-09T10:30:08.549Z,6.00
2023-05-09T10:32:39.945Z,5.57
2023-05-09T10:35:08.801Z,5.27
2023-05-09T10:37:37.918Z,6.17
2023-05-09T10:40:05.726Z,5.80
2023-05-09T10:42:33.460Z,4.90
2023-05-09T10:45:01.316Z,5.03
2023-05-09T10:47:29.028Z,4.80
2023-05-09T10:49:56.915Z,5.37
2023-05-09T10:52:24.557Z,5.13
2023-05-09T10:55:00.466Z,4.50
2023-05-09T10:57:29.153Z,4.07
2023-05-09T10:59:56.995Z,5.33
2023-05-09T11:02:25.053Z,5.00
2023-05-09T11:05:13.674Z,3.73
2023-05-09T11:07:41.271Z,4.33
2023-05-09T11:10:10.589Z,3.83
2023-05-09T11:12:52.932Z,3.87
2023-05-09T11:15:20.979Z,4.80
2023-05-09T11:17:51.463Z,4.60
2023-05-09T11:20:28.546Z,4.03
2023-05-09T11:22:57.900Z,3.83
2023-05-09T11:25:27.144Z,3.97
2023-05-09T11:27:58.887Z,3.60
2023-05-09T11:30:35.899Z,4.00
2023-05-09T11:33:03.339Z,3.20
2023-05-09T11:35:30.641Z,3.43
2023-05-09T11:38:00.415Z,4.30
2023-05-09T11:40:29.590Z,4.00
2023-05-09T11:42:58.588Z,3.80
2023-05-09T11:45:27.302Z,4.13
2023-05-09T11:47:54.790Z,3.97
2023-05-09T11:50:22.405Z,3.87
2023-05-09T11:52:50.120Z,4.03
2023-05-09T11:55:18.524Z,3.83
2023-05-09T11:57:48.901Z,3.63
2023-05-09T12:00:16.940Z,3.77
2023-05-09T12:02:44.898Z,3.93
2023-05-09T12:05:13.429Z,3.53
2023-05-09T12:07:41.243Z,3.20
2023-05-09T12:10:09.426Z,4.50
2023-05-09T12:12:36.944Z,3.83
2023-05-09T12:15:07.795Z,4.30
2023-05-09T12:17:35.287Z,5.23
2023-05-09T12:20:02.856Z,4.57
2023-05-09T12:22:30.142Z,5.47
2023-05-09T12:24:57.503Z,4.70
2023-05-09T12:27:24.742Z,5.33
2023-05-09T12:29:54.833Z,4.53
2023-05-09T12:32:23.853Z,4.60
2023-05-09T12:34:51.076Z,4.30
2023-05-09T12:37:19.090Z,4.13
2023-05-09T12:40:00.577Z,3.73
2023-05-09T12:42:27.987Z,4.43
2023-05-09T12:44:55.212Z,4.20
2023-05-09T12:47:26.956Z,4.77
2023-05-09T12:49:57.635Z,4.20
2023-05-09T12:52:25.031Z,4.93
2023-05-09T12:54:53.436Z,4.37
2023-05-09T12:57:24.180Z,4.07
2023-05-09T12:59:51.588Z,3.90
2023-05-09T13:02:18.879Z,4.07
2023-05-09T13:04:47.597Z,4.20
2023-05-09T13:07:14.825Z,3.93
2023-05-09T13:09:55.174Z,4.07
2023-05-09T13:12:22.565Z,4.83
2023-05-09T13:14:50.003Z,4.30
2023-05-09T13:17:17.362Z,4.30
2023-05-09T13:19:44.595Z,3.60
2023-05-09T13:22:15.620Z,3.40
2023-05-09T13:24:42.882Z,4.23
2023-05-09T13:27:10.170Z,3.53
2023-05-09T13:29:37.527Z,3.90
2023-05-09T13:32:04.798Z,4.73
2023-05-09T13:34:32.071Z,4.10
2023-05-09T13:36:59.527Z,4.10
2023-05-09T13:39:28.281Z,3.83
2023-05-09T13:41:55.518Z,3.30
2023-05-09T13:44:22.762Z,3.70
2023-05-09T13:46:50.264Z,3.70
2023-05-09T13:49:17.817Z,4.20
2023-05-09T13:51:45.069Z,3.57
2023-05-09T13:54:12.333Z,4.00
2023-05-09T13:56:40.978Z,4.77
2023-05-09T13:59:08.216Z,5.17
2023-05-09T14:01:35.496Z,5.00
2023-05-09T14:04:02.968Z,6.07
2023-05-09T14:06:30.239Z,5.53
2023-05-09T14:08:57.749Z,5.50
2023-05-09T14:11:25.513Z,5.57
2023-05-09T14:13:54.419Z,6.93
2023-05-09T14:16:21.785Z,4.47
2023-05-09T14:18:49.208Z,4.53
2023-05-09T14:21:16.514Z,5.00
2023-05-09T14:23:44.274Z,3.80
2023-05-09T14:26:11.607Z,4.93
2023-05-09T14:28:38.908Z,3.57
2023-05-09T14:31:07.573Z,5.00
2023-05-09T14:33:34.881Z,4.23
2023-05-09T14:36:02.404Z,3.80
2023-05-09T14:38:29.670Z,3.30
2023-05-09T14:40:56.884Z,2.97
2023-05-09T14:43:24.446Z,3.03
2023-05-09T14:45:51.942Z,3.57
2023-05-09T14:48:20.881Z,3.13
2023-05-09T14:50:48.254Z,3.30
2023-05-09T14:53:15.470Z,3.17
2023-05-09T14:55:42.786Z,3.50
2023-05-09T14:58:10.048Z,3.10
2023-05-09T15:00:37.324Z,3.50
2023-05-09T15:03:04.650Z,2.53
2023-05-09T15:05:33.415Z,4.23
2023-05-09T15:08:00.624Z,4.13
2023-05-09T15:10:27.942Z,3.00
2023-05-09T15:12:55.285Z,3.00
2023-05-09T15:15:23.425Z,3.20
2023-05-09T15:17:51.049Z,3.13
2023-05-09T15:20:18.868Z,3.30
2023-05-09T15:22:48.866Z,2.70
2023-05-09T15:25:16.485Z,3.43
2023-05-09T15:27:43.844Z,3.73
2023-05-09T15:30:11.612Z,4.70
2023-05-09T15:32:40.570Z,4.33
2023-05-09T15:35:09.070Z,3.67
2023-05-09T15:37:36.633Z,3.97
2023-05-09T15:40:05.829Z,4.30
2023-05-09T15:42:33.162Z,3.73
2023-05-09T15:45:00.537Z,3.20
2023-05-09T15:47:27.972Z,3.00
2023-05-09T15:49:55.270Z,2.93
2023-05-09T15:52:22.593Z,2.87
2023-05-09T15:54:49.942Z,2.67
2023-05-09T15:57:18.649Z,2.20
2023-05-09T15:59:45.912Z,2.30
2023-05-09T16:02:13.180Z,2.70
2023-05-09T16:04:40.479Z,2.83
2023-05-09T16:07:07.814Z,3.00
2023-05-09T16:09:35.136Z,2.83
2023-05-09T16:12:02.369Z,3.13
2023-05-09T16:14:31.026Z,3.20
2023-05-09T16:16:58.375Z,3.10
2023-05-09T16:19:25.620Z,3.80
2023-05-09T16:21:52.917Z,3.47
2023-05-09T16:24:20.313Z,2.67
2023-05-09T16:26:47.561Z,2.80
2023-05-09T16:29:14.862Z,2.47
2023-05-09T16:31:43.597Z,2.70
2023-05-09T16:34:11.012Z,2.10
2023-05-09T16:36:38.318Z,2.23
2023-05-09T16:39:05.623Z,1.80
2023-05-09T16:41:32.843Z,2.17
2023-05-09T16:44:00.146Z,3.03
2023-05-09T16:46:27.484Z,2.73
2023-05-09T16:48:56.155Z,2.67
2023-05-09T16:51:23.494Z,3.20
2023-05-09T16:53:50.851Z,3.17
2023-05-09T16:56:18.165Z,2.90
2023-05-09T16:58:45.417Z,2.57
2023-05-09T17:01:12.719Z,3.70
2023-05-09T17:03:40.101Z,2.33
2023-05-09T17:06:08.881Z,2.17
2023-05-09T17:08:36.120Z,2.80
2023-05-09T17:11:03.573Z,2.00
2023-05-09T17:13:30.829Z,3.67
2023-05-09T17:15:58.188Z,3.10
2023-05-09T17:18:36.690Z,2.07
2023-05-09T17:21:04.825Z,1.93
2023-05-09T17:23:33.451Z,2.30
2023-05-09T17:26:00.754Z,2.33
2023-05-09T17:28:28.048Z,2.10
2023-05-09T17:30:55.300Z,1.70
2023-05-09T17:33:22.614Z,2.27
2023-05-09T17:35:49.876Z,1.93
2023-05-09T17:38:17.416Z,2.37
2023-05-09T17:40:46.015Z,2.40
2023-05-09T17:43:13.355Z,2.63
2023-05-09T17:45:40.674Z,2.07
2023-05-09T17:48:08.094Z,2.20
2023-05-09T17:50:35.435Z,2.07
2023-05-09T17:53:02.696Z,2.40
2023-05-09T17:55:29.949Z,1.93
2023-05-09T17:57:58.595Z,2.13
2023-05-09T18:00:25.854Z,2.40
2023-05-09T18:02:53.399Z,2.20
2023-05-09T18:05:20.698Z,2.30
2023-05-09T18:07:48.045Z,2.87
2023-05-09T18:10:15.515Z,2.57
2023-05-09T18:12:43.157Z,2.43
2023-05-09T18:15:11.982Z,2.20
2023-05-09T18:17:39.373Z,2.30
2023-05-09T18:20:07.472Z,2.13
2023-05-09T18:22:34.706Z,2.00
2023-05-09T18:25:01.958Z,2.30
2023-05-09T18:27:29.279Z,2.60
2023-05-09T18:29:56.830Z,3.20
2023-05-09T18:32:25.684Z,3.03
2023-05-09T18:34:52.894Z,4.33
2023-05-09T18:37:20.101Z,3.53
2023-05-09T18:39:47.335Z,4.37
2023-05-09T18:42:16.319Z,4.80
2023-05-09T18:44:43.807Z,5.00
2023-05-09T18:47:11.133Z,5.30
2023-05-09T18:49:39.749Z,5.87
2023-05-09T18:52:07.009Z,6.17
2023-05-09T18:54:34.217Z,6.10
2023-05-09T18:57:01.544Z,6.37
2023-05-09T18:59:28.850Z,6.97
2023-05-09T19:01:56.049Z,7.10
2023-05-09T19:04:23.496Z,7.40
2023-05-09T19:06:52.409Z,7.53
2023-05-09T19:09:19.770Z,8.23
2023-05-09T19:11:47.435Z,7.63
2023-05-09T19:14:14.730Z,8.83
2023-05-09T19:16:42.021Z,8.67
2023-05-09T19:19:09.299Z,8.67
2023-05-09T19:21:36.534Z,9.00
2023-05-09T19:24:05.258Z,7.73
2023-05-09T19:26:32.546Z,8.53
2023-05-09T19:28:59.838Z,8.47
2023-05-09T19:31:27.092Z,8.77
2023-05-09T19:33:54.409Z,9.03
2023-05-09T19:36:21.663Z,9.27
2023-05-09T19:38:48.861Z,9.00
2023-05-09T19:41:17.524Z,9.47
2023-05-09T19:43:45.231Z,9.67
2023-05-09T19:46:12.618Z,10.57
2023-05-09T19:48:39.959Z,8.47
2023-05-09T19:51:07.195Z,8.07
2023-05-09T19:53:34.454Z,8.30
2023-05-09T19:56:01.777Z,7.97
2023-05-09T19:58:30.372Z,7.63
2023-05-09T20:00:57.589Z,7.53
2023-05-09T20:03:24.907Z,7.77
2023-05-09T20:05:55.163Z,8.40
2023-05-09T20:08:22.493Z,7.30
2023-05-09T20:10:49.723Z,8.13
2023-05-09T20:13:17.036Z,9.27
2023-05-09T20:15:45.729Z,8.57
2023-05-09T20:18:13.059Z,9.90
2023-05-09T20:20:40.324Z,9.83
2023-05-09T20:23:07.664Z,11.53
2023-05-09T20:25:34.996Z,12.97
2023-05-09T20:28:02.277Z,13.23
2023-05-09T20:30:29.540Z,13.20
2023-05-09T20:32:58.303Z,13.17
2023-05-09T20:35:25.594Z,11.40
2023-05-09T20:37:52.990Z,11.00
2023-05-09T20:40:20.227Z,9.23
2023-05-09T20:42:47.638Z,10.93
2023-05-09T20:45:14.886Z,11.53
2023-05-09T20:47:42.186Z,10.80
2023-05-09T20:50:11.460Z,11.13
2023-05-09T20:52:38.696Z,10.23
2023-05-09T20:55:06.679Z,10.50
2023-05-09T20:57:34.008Z,10.20
2023-05-09T21:00:01.329Z,12.50
2023-05-09T21:02:28.691Z,13.90
2023-05-09T21:04:55.992Z,15.23
2023-05-09T21:07:24.820Z,14.87
2023-05-09T21:09:52.211Z,16.70
2023-05-09T21:12:19.519Z,15.67
2023-05-09T21:14:46.844Z,14.83
2023-05-09T21:17:14.121Z,14.93
2023-05-09T21:19:41.439Z,14.90
2023-05-09T21:22:08.693Z,13.93
2023-05-09T21:24:37.353Z,13.63
2023-05-09T21:27:04.695Z,12.47
2023-05-09T21:29:31.951Z,12.57
2023-05-09T21:31:59.240Z,12.27
2023-05-09T21:34:26.532Z,13.50
2023-05-09T21:36:53.957Z,12.60
2023-05-09T21:39:21.212Z,13.17
2023-05-09T21:41:49.856Z,11.90
2023-05-09T21:44:17.095Z,12.33
2023-05-09T21:46:44.439Z,11.17
2023-05-09T21:49:11.849Z,11.23
2023-05-09T21:51:39.161Z,10.23
2023-05-09T21:54:06.472Z,9.27
2023-05-09T21:56:33.759Z,11.30
2023-05-09T21:59:02.354Z,9.93
2023-05-09T22:01:29.769Z,11.13
2023-05-09T22:03:57.091Z,9.80
2023-05-09T22:06:24.354Z,9.87
2023-05-09T22:08:51.542Z,9.90
2023-05-09T22:11:18.764Z,11.93
2023-05-09T22:13:45.989Z,9.60
2023-05-09T22:16:14.596Z,9.93
2023-05-09T22:18:41.800Z,10.03
2023-05-09T22:21:08.985Z,8.60
2023-05-09T22:23:36.566Z,9.17
2023-05-09T22:26:06.565Z,7.87
2023-05-09T22:28:33.855Z,9.23
2023-05-09T22:31:01.068Z,9.93
2023-05-09T22:33:29.638Z,10.10
2023-05-09T22:35:56.901Z,10.33
2023-05-09T22:38:24.226Z,8.47
2023-05-09T22:40:51.452Z,8.57
2023-05-09T22:43:18.681Z,9.30
2023-05-09T22:45:45.979Z,9.60
2023-05-09T22:48:13.326Z,9.40
2023-05-09T22:50:41.944Z,9.57
2023-05-09T22:53:09.162Z,8.80
2023-05-09T22:55:36.645Z,8.90
2023-05-09T22:58:03.888Z,9.43
2023-05-09T23:00:31.344Z,9.40
2023-05-09T23:02:58.757Z,8.47
2023-05-09T23:05:26.013Z,8.70
2023-05-09T23:07:54.694Z,8.97
2023-05-09T23:10:22.049Z,9.47
2023-05-09T23:12:49.593Z,8.93
2023-05-09T23:15:16.831Z,9.13
2023-05-09T23:17:44.182Z,9.40
2023-05-09T23:20:12.011Z,10.20
2023-05-09T23:22:39.273Z,9.60
2023-05-09T23:25:09.174Z,9.53
2023-05-09T23:27:36.448Z,8.87
2023-05-09T23:30:03.739Z,7.93
2023-05-09T23:32:31.059Z,9.27
2023-05-09T23:34:58.320Z,9.90
2023-05-09T23:37:25.628Z,9.37
2023-05-09T23:39:52.893Z,9.37
2023-05-09T23:42:21.435Z,10.13
2023-05-09T23:44:49.090Z,9.60
2023-05-09T23:47:16.452Z,10.60
2023-05-09T23:49:43.909Z,10.20
2023-05-09T23:52:11.121Z,9.73
2023-05-09T23:54:38.411Z,9.80
2023-05-09T23:57:05.835Z,10.00
2023-05-09T23:59:34.453Z,9.80
